sensor_id;sensor_type;location;lat;lon;timestamp;P1;durP1;ratioP1;P2;durP2;ratioP2
57029;SDS011;42920;45.306;20.448;2022-10-10T00:00:47;8.95;;;6.28;;
57029;SDS011;42920;45.306;20.448;2022-10-10T00:03:13;10.77;;;5.57;;
57029;SDS011;42920;45.306;20.448;2022-10-10T00:05:40;12.98;;;6.22;;
57029;SDS011;42920;45.306;20.448;2022-10-10T00:08:06;17.20;;;5.82;;
57029;SDS011;42920;45.306;20.448;2022-10-10T00:10:32;10.60;;;5.63;;
57029;SDS011;42920;45.306;20.448;2022-10-10T00:12:58;10.13;;;5.53;;
57029;SDS011;42920;45.306;20.448;2022-10-10T00:15:24;8.95;;;5.25;;
57029;SDS011;42920;45.306;20.448;2022-10-10T00:17:50;8.48;;;4.88;;
57029;SDS011;42920;45.306;20.448;2022-10-10T00:20:16;8.65;;;4.75;;
57029;SDS011;42920;45.306;20.448;2022-10-10T00:22:43;12.38;;;4.95;;
57029;SDS011;42920;45.306;20.448;2022-10-10T00:25:09;9.13;;;4.35;;
57029;SDS011;42920;45.306;20.448;2022-10-10T00:27:35;10.35;;;4.78;;
57029;SDS011;42920;45.306;20.448;2022-10-10T00:30:03;8.95;;;4.75;;
57029;SDS011;42920;45.306;20.448;2022-10-10T00:32:30;8.85;;;4.53;;
57029;SDS011;42920;45.306;20.448;2022-10-10T00:34:56;7.00;;;4.22;;
57029;SDS011;42920;45.306;20.448;2022-10-10T00:37:22;9.30;;;4.55;;
57029;SDS011;42920;45.306;20.448;2022-10-10T00:39:48;14.25;;;4.53;;
57029;SDS011;42920;45.306;20.448;2022-10-10T00:42:14;8.00;;;4.60;;
57029;SDS011;42920;45.306;20.448;2022-10-10T00:44:42;12.88;;;5.20;;
57029;SDS011;42920;45.306;20.448;2022-10-10T00:47:09;8.77;;;3.80;;
57029;SDS011;42920;45.306;20.448;2022-10-10T00:49:36;7.18;;;4.10;;
57029;SDS011;42920;45.306;20.448;2022-10-10T00:52:05;8.18;;;4.22;;
57029;SDS011;42920;45.306;20.448;2022-10-10T00:54:33;8.43;;;3.95;;
57029;SDS011;42920;45.306;20.448;2022-10-10T00:57:07;8.52;;;4.28;;
57029;SDS011;42920;45.306;20.448;2022-10-10T00:59:35;10.82;;;3.83;;
57029;SDS011;42920;45.306;20.448;2022-10-10T01:02:04;6.28;;;3.80;;
57029;SDS011;42920;45.306;20.448;2022-10-10T01:04:35;11.20;;;4.70;;
57029;SDS011;42920;45.306;20.448;2022-10-10T01:07:03;6.78;;;3.80;;
57029;SDS011;42920;45.306;20.448;2022-10-10T01:09:32;6.40;;;4.20;;
57029;SDS011;42920;45.306;20.448;2022-10-10T01:20:30;10.13;;;3.90;;
57029;SDS011;42920;45.306;20.448;2022-10-10T01:29:14;8.95;;;4.60;;
57029;SDS011;42920;45.306;20.448;2022-10-10T01:31:49;7.53;;;4.75;;
57029;SDS011;42920;45.306;20.448;2022-10-10T01:34:26;10.90;;;4.28;;
57029;SDS011;42920;45.306;20.448;2022-10-10T01:37:06;13.32;;;5.32;;
57029;SDS011;42920;45.306;20.448;2022-10-10T01:42:27;7.22;;;4.70;;
57029;SDS011;42920;45.306;20.448;2022-10-10T01:44:58;8.82;;;4.07;;
57029;SDS011;42920;45.306;20.448;2022-10-10T01:47:23;8.60;;;5.13;;
57029;SDS011;42920;45.306;20.448;2022-10-10T01:49:50;11.02;;;5.53;;
57029;SDS011;42920;45.306;20.448;2022-10-10T01:55:35;10.17;;;5.27;;
57029;SDS011;42920;45.306;20.448;2022-10-10T01:58:15;10.68;;;4.50;;
57029;SDS011;42920;45.306;20.448;2022-10-10T02:01:06;9.77;;;4.90;;
57029;SDS011;42920;45.306;20.448;2022-10-10T02:03:42;15.93;;;4.82;;
57029;SDS011;42920;45.306;20.448;2022-10-10T02:06:32;8.65;;;5.30;;
57029;SDS011;42920;45.306;20.448;2022-10-10T02:09:06;8.27;;;4.45;;
57029;SDS011;42920;45.306;20.448;2022-10-10T02:11:36;11.45;;;5.60;;
57029;SDS011;42920;45.306;20.448;2022-10-10T02:14:23;11.05;;;5.72;;
57029;SDS011;42920;45.306;20.448;2022-10-10T02:16:53;10.52;;;5.45;;
57029;SDS011;42920;45.306;20.448;2022-10-10T02:19:21;13.70;;;5.85;;
57029;SDS011;42920;45.306;20.448;2022-10-10T02:21:48;9.40;;;5.93;;
57029;SDS011;42920;45.306;20.448;2022-10-10T02:24:16;11.20;;;6.13;;
57029;SDS011;42920;45.306;20.448;2022-10-10T02:26:45;7.75;;;4.93;;
57029;SDS011;42920;45.306;20.448;2022-10-10T02:29:26;8.98;;;5.30;;
57029;SDS011;42920;45.306;20.448;2022-10-10T02:32:19;11.35;;;5.22;;
57029;SDS011;42920;45.306;20.448;2022-10-10T02:34:48;10.90;;;4.45;;
57029;SDS011;42920;45.306;20.448;2022-10-10T02:37:17;7.60;;;4.63;;
57029;SDS011;42920;45.306;20.448;2022-10-10T02:39:44;7.15;;;4.28;;
57029;SDS011;42920;45.306;20.448;2022-10-10T02:42:14;10.07;;;5.35;;
57029;SDS011;42920;45.306;20.448;2022-10-10T02:44:41;7.55;;;4.50;;
57029;SDS011;42920;45.306;20.448;2022-10-10T02:47:09;9.32;;;4.40;;
57029;SDS011;42920;45.306;20.448;2022-10-10T02:49:34;8.63;;;5.30;;
57029;SDS011;42920;45.306;20.448;2022-10-10T02:52:01;10.25;;;4.82;;
57029;SDS011;42920;45.306;20.448;2022-10-10T02:54:26;7.93;;;4.13;;
57029;SDS011;42920;45.306;20.448;2022-10-10T02:56:52;10.93;;;4.47;;
57029;SDS011;42920;45.306;20.448;2022-10-10T02:59:18;10.80;;;4.78;;
57029;SDS011;42920;45.306;20.448;2022-10-10T03:01:44;10.10;;;4.35;;
57029;SDS011;42920;45.306;20.448;2022-10-10T03:04:10;9.43;;;5.88;;
57029;SDS011;42920;45.306;20.448;2022-10-10T03:06:36;9.80;;;5.15;;
57029;SDS011;42920;45.306;20.448;2022-10-10T03:09:03;14.60;;;6.25;;
57029;SDS011;42920;45.306;20.448;2022-10-10T03:11:30;10.43;;;5.95;;
57029;SDS011;42920;45.306;20.448;2022-10-10T03:13:56;9.38;;;5.57;;
57029;SDS011;42920;45.306;20.448;2022-10-10T03:16:22;10.55;;;4.72;;
57029;SDS011;42920;45.306;20.448;2022-10-10T03:18:47;18.17;;;6.75;;
57029;SDS011;42920;45.306;20.448;2022-10-10T03:21:13;10.35;;;4.18;;
57029;SDS011;42920;45.306;20.448;2022-10-10T03:23:39;6.35;;;4.82;;
57029;SDS011;42920;45.306;20.448;2022-10-10T03:26:05;13.95;;;4.70;;
57029;SDS011;42920;45.306;20.448;2022-10-10T03:28:30;7.43;;;4.65;;
57029;SDS011;42920;45.306;20.448;2022-10-10T03:30:56;12.73;;;4.78;;
57029;SDS011;42920;45.306;20.448;2022-10-10T03:33:22;10.23;;;4.70;;
57029;SDS011;42920;45.306;20.448;2022-10-10T03:35:48;24.13;;;5.95;;
57029;SDS011;42920;45.306;20.448;2022-10-10T03:38:14;16.77;;;5.30;;
57029;SDS011;42920;45.306;20.448;2022-10-10T03:40:40;7.93;;;4.75;;
57029;SDS011;42920;45.306;20.448;2022-10-10T03:43:08;9.30;;;4.45;;
57029;SDS011;42920;45.306;20.448;2022-10-10T03:45:35;8.23;;;4.68;;
57029;SDS011;42920;45.306;20.448;2022-10-10T03:48:01;7.15;;;4.60;;
57029;SDS011;42920;45.306;20.448;2022-10-10T03:50:27;7.28;;;4.38;;
57029;SDS011;42920;45.306;20.448;2022-10-10T03:52:54;8.40;;;4.80;;
57029;SDS011;42920;45.306;20.448;2022-10-10T03:55:19;7.97;;;5.05;;
57029;SDS011;42920;45.306;20.448;2022-10-10T03:57:45;9.77;;;4.38;;
57029;SDS011;42920;45.306;20.448;2022-10-10T04:00:11;8.07;;;4.95;;
57029;SDS011;42920;45.306;20.448;2022-10-10T04:02:38;12.27;;;5.90;;
57029;SDS011;42920;45.306;20.448;2022-10-10T04:05:04;9.68;;;4.57;;
57029;SDS011;42920;45.306;20.448;2022-10-10T04:07:30;8.55;;;4.55;;
57029;SDS011;42920;45.306;20.448;2022-10-10T04:09:56;7.03;;;4.57;;
57029;SDS011;42920;45.306;20.448;2022-10-10T04:12:22;12.40;;;5.10;;
57029;SDS011;42920;45.306;20.448;2022-10-10T04:14:48;11.18;;;5.13;;
57029;SDS011;42920;45.306;20.448;2022-10-10T04:17:14;16.88;;;6.70;;
57029;SDS011;42920;45.306;20.448;2022-10-10T04:19:39;11.68;;;5.35;;
57029;SDS011;42920;45.306;20.448;2022-10-10T04:22:05;13.73;;;6.20;;
57029;SDS011;42920;45.306;20.448;2022-10-10T04:24:31;8.10;;;4.30;;
57029;SDS011;42920;45.306;20.448;2022-10-10T04:26:57;10.50;;;4.97;;
57029;SDS011;42920;45.306;20.448;2022-10-10T04:29:23;9.65;;;4.55;;
57029;SDS011;42920;45.306;20.448;2022-10-10T04:31:49;7.25;;;4.47;;
57029;SDS011;42920;45.306;20.448;2022-10-10T04:34:15;12.07;;;4.13;;
57029;SDS011;42920;45.306;20.448;2022-10-10T04:36:41;8.45;;;5.47;;
57029;SDS011;42920;45.306;20.448;2022-10-10T04:39:06;9.85;;;4.75;;
57029;SDS011;42920;45.306;20.448;2022-10-10T04:41:33;7.68;;;4.97;;
57029;SDS011;42920;45.306;20.448;2022-10-10T04:43:59;13.60;;;5.80;;
57029;SDS011;42920;45.306;20.448;2022-10-10T04:46:24;14.10;;;6.65;;
57029;SDS011;42920;45.306;20.448;2022-10-10T04:48:50;19.80;;;9.65;;
57029;SDS011;42920;45.306;20.448;2022-10-10T04:51:16;15.35;;;8.48;;
57029;SDS011;42920;45.306;20.448;2022-10-10T04:53:42;17.08;;;8.93;;
57029;SDS011;42920;45.306;20.448;2022-10-10T04:56:08;14.05;;;7.65;;
57029;SDS011;42920;45.306;20.448;2022-10-10T04:58:34;13.82;;;7.43;;
57029;SDS011;42920;45.306;20.448;2022-10-10T05:01:00;12.50;;;6.78;;
57029;SDS011;42920;45.306;20.448;2022-10-10T05:03:26;11.07;;;6.00;;
57029;SDS011;42920;45.306;20.448;2022-10-10T05:05:53;8.85;;;5.97;;
57029;SDS011;42920;45.306;20.448;2022-10-10T05:08:19;10.32;;;6.25;;
57029;SDS011;42920;45.306;20.448;2022-10-10T05:10:45;28.58;;;9.38;;
57029;SDS011;42920;45.306;20.448;2022-10-10T05:13:12;18.98;;;7.53;;
57029;SDS011;42920;45.306;20.448;2022-10-10T05:15:39;11.05;;;5.50;;
57029;SDS011;42920;45.306;20.448;2022-10-10T05:18:06;13.10;;;7.28;;
57029;SDS011;42920;45.306;20.448;2022-10-10T05:20:33;11.15;;;6.00;;
57029;SDS011;42920;45.306;20.448;2022-10-10T05:23:00;10.50;;;5.60;;
57029;SDS011;42920;45.306;20.448;2022-10-10T05:25:26;10.70;;;5.40;;
57029;SDS011;42920;45.306;20.448;2022-10-10T05:27:52;11.82;;;6.15;;
57029;SDS011;42920;45.306;20.448;2022-10-10T05:30:19;11.55;;;5.80;;
57029;SDS011;42920;45.306;20.448;2022-10-10T05:32:45;8.57;;;5.43;;
57029;SDS011;42920;45.306;20.448;2022-10-10T05:35:10;11.95;;;5.50;;
57029;SDS011;42920;45.306;20.448;2022-10-10T05:37:36;13.57;;;5.72;;
57029;SDS011;42920;45.306;20.448;2022-10-10T05:40:02;12.15;;;5.82;;
57029;SDS011;42920;45.306;20.448;2022-10-10T05:42:28;9.30;;;5.22;;
57029;SDS011;42920;45.306;20.448;2022-10-10T05:44:54;9.27;;;5.28;;
57029;SDS011;42920;45.306;20.448;2022-10-10T05:47:20;25.48;;;7.28;;
57029;SDS011;42920;45.306;20.448;2022-10-10T05:49:46;28.13;;;9.45;;
57029;SDS011;42920;45.306;20.448;2022-10-10T05:52:11;17.23;;;9.55;;
57029;SDS011;42920;45.306;20.448;2022-10-10T05:54:37;17.73;;;9.90;;
57029;SDS011;42920;45.306;20.448;2022-10-10T05:57:03;18.23;;;8.85;;
57029;SDS011;42920;45.306;20.448;2022-10-10T05:59:28;16.52;;;8.20;;
57029;SDS011;42920;45.306;20.448;2022-10-10T06:01:54;14.93;;;8.80;;
57029;SDS011;42920;45.306;20.448;2022-10-10T06:04:21;16.90;;;8.57;;
57029;SDS011;42920;45.306;20.448;2022-10-10T06:06:47;15.77;;;7.72;;
57029;SDS011;42920;45.306;20.448;2022-10-10T06:09:13;37.20;;;11.45;;
57029;SDS011;42920;45.306;20.448;2022-10-10T06:11:39;20.00;;;10.75;;
57029;SDS011;42920;45.306;20.448;2022-10-10T06:14:05;19.15;;;10.00;;
57029;SDS011;42920;45.306;20.448;2022-10-10T06:16:31;17.70;;;8.90;;
57029;SDS011;42920;45.306;20.448;2022-10-10T06:18:57;20.23;;;9.15;;
57029;SDS011;42920;45.306;20.448;2022-10-10T06:21:23;17.05;;;10.20;;
57029;SDS011;42920;45.306;20.448;2022-10-10T06:23:49;18.67;;;10.27;;
57029;SDS011;42920;45.306;20.448;2022-10-10T06:26:15;16.52;;;9.73;;
57029;SDS011;42920;45.306;20.448;2022-10-10T06:28:41;20.70;;;10.95;;
57029;SDS011;42920;45.306;20.448;2022-10-10T06:31:07;24.05;;;10.50;;
57029;SDS011;42920;45.306;20.448;2022-10-10T06:33:35;14.02;;;9.38;;
57029;SDS011;42920;45.306;20.448;2022-10-10T06:36:05;16.67;;;9.20;;
57029;SDS011;42920;45.306;20.448;2022-10-10T06:38:34;18.48;;;10.65;;
57029;SDS011;42920;45.306;20.448;2022-10-10T06:41:04;17.60;;;11.27;;
57029;SDS011;42920;45.306;20.448;2022-10-10T06:43:31;20.42;;;12.77;;
57029;SDS011;42920;45.306;20.448;2022-10-10T06:45:58;16.45;;;10.05;;
57029;SDS011;42920;45.306;20.448;2022-10-10T06:48:24;19.80;;;12.23;;
57029;SDS011;42920;45.306;20.448;2022-10-10T06:51:01;16.95;;;11.00;;
57029;SDS011;42920;45.306;20.448;2022-10-10T06:53:29;19.42;;;10.85;;
57029;SDS011;42920;45.306;20.448;2022-10-10T06:55:55;19.33;;;12.45;;
57029;SDS011;42920;45.306;20.448;2022-10-10T06:58:22;26.95;;;15.95;;
57029;SDS011;42920;45.306;20.448;2022-10-10T07:00:52;23.48;;;14.77;;
57029;SDS011;42920;45.306;20.448;2022-10-10T07:03:21;31.08;;;19.20;;
57029;SDS011;42920;45.306;20.448;2022-10-10T07:05:54;26.42;;;17.27;;
57029;SDS011;42920;45.306;20.448;2022-10-10T07:08:21;25.70;;;14.38;;
57029;SDS011;42920;45.306;20.448;2022-10-10T07:10:47;22.88;;;13.60;;
57029;SDS011;42920;45.306;20.448;2022-10-10T07:13:13;24.05;;;15.65;;
57029;SDS011;42920;45.306;20.448;2022-10-10T07:15:40;28.25;;;17.38;;
57029;SDS011;42920;45.306;20.448;2022-10-10T07:18:06;26.13;;;15.52;;
57029;SDS011;42920;45.306;20.448;2022-10-10T07:20:33;33.95;;;19.35;;
57029;SDS011;42920;45.306;20.448;2022-10-10T07:22:59;36.50;;;23.52;;
57029;SDS011;42920;45.306;20.448;2022-10-10T07:25:26;38.67;;;21.02;;
57029;SDS011;42920;45.306;20.448;2022-10-10T07:27:52;37.63;;;23.15;;
57029;SDS011;42920;45.306;20.448;2022-10-10T07:30:18;35.17;;;21.63;;
57029;SDS011;42920;45.306;20.448;2022-10-10T07:32:44;43.50;;;28.25;;
57029;SDS011;42920;45.306;20.448;2022-10-10T07:35:10;43.28;;;29.85;;
57029;SDS011;42920;45.306;20.448;2022-10-10T07:37:36;42.63;;;27.88;;
57029;SDS011;42920;45.306;20.448;2022-10-10T07:40:03;47.67;;;32.58;;
57029;SDS011;42920;45.306;20.448;2022-10-10T07:42:29;52.67;;;33.92;;
57029;SDS011;42920;45.306;20.448;2022-10-10T07:44:55;56.22;;;36.70;;
57029;SDS011;42920;45.306;20.448;2022-10-10T07:47:21;60.00;;;36.50;;
57029;SDS011;42920;45.306;20.448;2022-10-10T07:49:47;50.65;;;34.83;;
57029;SDS011;42920;45.306;20.448;2022-10-10T07:52:14;52.60;;;36.60;;
57029;SDS011;42920;45.306;20.448;2022-10-10T07:54:39;57.58;;;37.05;;
57029;SDS011;42920;45.306;20.448;2022-10-10T07:57:06;48.72;;;34.38;;
57029;SDS011;42920;45.306;20.448;2022-10-10T07:59:32;53.15;;;36.42;;
57029;SDS011;42920;45.306;20.448;2022-10-10T08:01:58;53.10;;;37.40;;
57029;SDS011;42920;45.306;20.448;2022-10-10T08:04:24;71.47;;;40.65;;
57029;SDS011;42920;45.306;20.448;2022-10-10T08:06:49;48.13;;;37.20;;
57029;SDS011;42920;45.306;20.448;2022-10-10T08:09:15;52.20;;;35.35;;
57029;SDS011;42920;45.306;20.448;2022-10-10T08:11:41;44.83;;;34.95;;
57029;SDS011;42920;45.306;20.448;2022-10-10T08:14:07;42.70;;;31.30;;
57029;SDS011;42920;45.306;20.448;2022-10-10T08:16:33;44.30;;;32.72;;
57029;SDS011;42920;45.306;20.448;2022-10-10T08:18:59;40.58;;;30.02;;
57029;SDS011;42920;45.306;20.448;2022-10-10T08:21:24;44.20;;;32.70;;
57029;SDS011;42920;45.306;20.448;2022-10-10T08:23:50;41.55;;;31.23;;
57029;SDS011;42920;45.306;20.448;2022-10-10T08:26:16;48.70;;;35.15;;
57029;SDS011;42920;45.306;20.448;2022-10-10T08:28:44;45.65;;;31.83;;
57029;SDS011;42920;45.306;20.448;2022-10-10T08:31:12;46.95;;;34.95;;
57029;SDS011;42920;45.306;20.448;2022-10-10T08:33:40;52.72;;;37.03;;
57029;SDS011;42920;45.306;20.448;2022-10-10T08:36:07;52.42;;;36.40;;
57029;SDS011;42920;45.306;20.448;2022-10-10T08:38:35;50.95;;;33.75;;
57029;SDS011;42920;45.306;20.448;2022-10-10T08:41:15;45.58;;;32.85;;
57029;SDS011;42920;45.306;20.448;2022-10-10T08:44:09;43.55;;;31.98;;
57029;SDS011;42920;45.306;20.448;2022-10-10T08:46:53;52.05;;;34.05;;
57029;SDS011;42920;45.306;20.448;2022-10-10T08:49:26;44.80;;;32.70;;
57029;SDS011;42920;45.306;20.448;2022-10-10T08:54:47;25.45;;;19.88;;
57029;SDS011;42920;45.306;20.448;2022-10-10T08:57:24;30.23;;;20.33;;
57029;SDS011;42920;45.306;20.448;2022-10-10T08:59:53;27.08;;;18.08;;
57029;SDS011;42920;45.306;20.448;2022-10-10T09:02:44;25.08;;;17.05;;
57029;SDS011;42920;45.306;20.448;2022-10-10T09:05:14;27.52;;;17.70;;
57029;SDS011;42920;45.306;20.448;2022-10-10T09:07:48;21.83;;;16.75;;
57029;SDS011;42920;45.306;20.448;2022-10-10T09:10:58;26.15;;;16.48;;
57029;SDS011;42920;45.306;20.448;2022-10-10T09:13:38;23.10;;;16.52;;
57029;SDS011;42920;45.306;20.448;2022-10-10T09:19:21;31.73;;;17.30;;
57029;SDS011;42920;45.306;20.448;2022-10-10T09:22:00;25.15;;;17.45;;
57029;SDS011;42920;45.306;20.448;2022-10-10T09:24:37;27.50;;;17.05;;
57029;SDS011;42920;45.306;20.448;2022-10-10T09:27:23;23.70;;;16.65;;
57029;SDS011;42920;45.306;20.448;2022-10-10T09:30:04;22.02;;;17.65;;
57029;SDS011;42920;45.306;20.448;2022-10-10T09:35:16;21.10;;;17.20;;
57029;SDS011;42920;45.306;20.448;2022-10-10T09:37:43;25.38;;;17.02;;
57029;SDS011;42920;45.306;20.448;2022-10-10T09:40:15;31.10;;;17.85;;
57029;SDS011;42920;45.306;20.448;2022-10-10T09:42:45;29.05;;;17.30;;
57029;SDS011;42920;45.306;20.448;2022-10-10T09:45:18;24.90;;;15.52;;
57029;SDS011;42920;45.306;20.448;2022-10-10T09:47:47;21.97;;;17.10;;
57029;SDS011;42920;45.306;20.448;2022-10-10T09:50:15;20.65;;;15.10;;
57029;SDS011;42920;45.306;20.448;2022-10-10T09:52:41;25.02;;;14.10;;
57029;SDS011;42920;45.306;20.448;2022-10-10T09:55:18;23.20;;;14.23;;
57029;SDS011;42920;45.306;20.448;2022-10-10T09:57:45;23.50;;;15.43;;
57029;SDS011;42920;45.306;20.448;2022-10-10T10:02:42;25.73;;;15.15;;
57029;SDS011;42920;45.306;20.448;2022-10-10T10:05:30;25.73;;;14.73;;
57029;SDS011;42920;45.306;20.448;2022-10-10T10:07:56;19.63;;;14.57;;
57029;SDS011;42920;45.306;20.448;2022-10-10T10:10:22;21.15;;;15.00;;
57029;SDS011;42920;45.306;20.448;2022-10-10T10:12:51;23.80;;;15.27;;
57029;SDS011;42920;45.306;20.448;2022-10-10T10:15:23;25.70;;;15.77;;
57029;SDS011;42920;45.306;20.448;2022-10-10T10:20:36;21.10;;;14.23;;
57029;SDS011;42920;45.306;20.448;2022-10-10T10:23:03;20.02;;;14.45;;
57029;SDS011;42920;45.306;20.448;2022-10-10T10:25:35;22.00;;;14.35;;
57029;SDS011;42920;45.306;20.448;2022-10-10T10:30:40;25.35;;;15.50;;
57029;SDS011;42920;45.306;20.448;2022-10-10T10:38:42;19.65;;;13.60;;
57029;SDS011;42920;45.306;20.448;2022-10-10T10:44:16;19.63;;;13.05;;
57029;SDS011;42920;45.306;20.448;2022-10-10T10:52:24;15.95;;;11.52;;
57029;SDS011;42920;45.306;20.448;2022-10-10T10:55:17;18.05;;;12.40;;
57029;SDS011;42920;45.306;20.448;2022-10-10T11:00:21;15.77;;;10.95;;
57029;SDS011;42920;45.306;20.448;2022-10-10T11:16:07;21.23;;;11.40;;
57029;SDS011;42920;45.306;20.448;2022-10-10T11:19:03;18.90;;;10.68;;
57029;SDS011;42920;45.306;20.448;2022-10-10T11:21:52;22.35;;;11.10;;
57029;SDS011;42920;45.306;20.448;2022-10-10T11:24:28;21.30;;;10.23;;
57029;SDS011;42920;45.306;20.448;2022-10-10T11:27:05;21.00;;;10.60;;
57029;SDS011;42920;45.306;20.448;2022-10-10T11:29:54;17.42;;;11.02;;
57029;SDS011;42920;45.306;20.448;2022-10-10T11:35:39;20.40;;;11.23;;
57029;SDS011;42920;45.306;20.448;2022-10-10T11:43:22;22.00;;;9.95;;
57029;SDS011;42920;45.306;20.448;2022-10-10T11:45:54;16.08;;;10.73;;
57029;SDS011;42920;45.306;20.448;2022-10-10T11:48:28;21.77;;;10.05;;
57029;SDS011;42920;45.306;20.448;2022-10-10T11:51:05;20.00;;;11.23;;
57029;SDS011;42920;45.306;20.448;2022-10-10T11:53:46;17.25;;;9.30;;
57029;SDS011;42920;45.306;20.448;2022-10-10T11:56:28;15.77;;;9.10;;
57029;SDS011;42920;45.306;20.448;2022-10-10T11:59:06;14.93;;;9.98;;
57029;SDS011;42920;45.306;20.448;2022-10-10T12:01:54;15.18;;;10.18;;
57029;SDS011;42920;45.306;20.448;2022-10-10T12:04:23;19.25;;;11.00;;
57029;SDS011;42920;45.306;20.448;2022-10-10T12:06:54;14.40;;;10.15;;
57029;SDS011;42920;45.306;20.448;2022-10-10T12:14:25;15.38;;;9.63;;
57029;SDS011;42920;45.306;20.448;2022-10-10T12:16:54;23.33;;;11.07;;
57029;SDS011;42920;45.306;20.448;2022-10-10T12:19:21;16.38;;;9.85;;
57029;SDS011;42920;45.306;20.448;2022-10-10T12:21:59;19.40;;;11.40;;
57029;SDS011;42920;45.306;20.448;2022-10-10T12:24:33;18.42;;;10.48;;
57029;SDS011;42920;45.306;20.448;2022-10-10T12:37:21;23.48;;;11.98;;
57029;SDS011;42920;45.306;20.448;2022-10-10T12:48:01;13.85;;;9.95;;
57029;SDS011;42920;45.306;20.448;2022-10-10T12:50:30;16.58;;;10.27;;
57029;SDS011;42920;45.306;20.448;2022-10-10T12:53:03;22.45;;;10.55;;
57029;SDS011;42920;45.306;20.448;2022-10-10T12:55:46;15.20;;;10.07;;
57029;SDS011;42920;45.306;20.448;2022-10-10T13:00:42;15.43;;;9.63;;
57029;SDS011;42920;45.306;20.448;2022-10-10T13:03:20;15.52;;;9.65;;
57029;SDS011;42920;45.306;20.448;2022-10-10T13:05:46;18.73;;;10.15;;
57029;SDS011;42920;45.306;20.448;2022-10-10T13:08:16;13.02;;;9.48;;
57029;SDS011;42920;45.306;20.448;2022-10-10T13:11:00;12.95;;;9.27;;
57029;SDS011;42920;45.306;20.448;2022-10-10T13:13:26;13.85;;;10.15;;
57029;SDS011;42920;45.306;20.448;2022-10-10T13:15:54;22.75;;;9.57;;
57029;SDS011;42920;45.306;20.448;2022-10-10T13:21:04;16.58;;;10.00;;
57029;SDS011;42920;45.306;20.448;2022-10-10T13:23:45;17.15;;;10.32;;
57029;SDS011;42920;45.306;20.448;2022-10-10T13:26:22;13.90;;;9.60;;
57029;SDS011;42920;45.306;20.448;2022-10-10T13:28:54;13.07;;;9.30;;
57029;SDS011;42920;45.306;20.448;2022-10-10T13:31:23;18.15;;;9.68;;
57029;SDS011;42920;45.306;20.448;2022-10-10T13:33:55;16.75;;;9.60;;
57029;SDS011;42920;45.306;20.448;2022-10-10T13:36:23;18.52;;;9.85;;
57029;SDS011;42920;45.306;20.448;2022-10-10T13:38:52;15.13;;;9.80;;
57029;SDS011;42920;45.306;20.448;2022-10-10T13:41:19;14.73;;;9.63;;
57029;SDS011;42920;45.306;20.448;2022-10-10T13:43:46;17.60;;;10.40;;
57029;SDS011;42920;45.306;20.448;2022-10-10T13:46:21;12.32;;;8.95;;
57029;SDS011;42920;45.306;20.448;2022-10-10T13:48:48;21.52;;;10.02;;
57029;SDS011;42920;45.306;20.448;2022-10-10T13:51:17;12.95;;;8.82;;
57029;SDS011;42920;45.306;20.448;2022-10-10T13:53:48;15.27;;;9.98;;
57029;SDS011;42920;45.306;20.448;2022-10-10T13:56:18;17.35;;;10.05;;
57029;SDS011;42920;45.306;20.448;2022-10-10T14:01:29;15.98;;;9.40;;
57029;SDS011;42920;45.306;20.448;2022-10-10T14:07:02;14.43;;;10.23;;
57029;SDS011;42920;45.306;20.448;2022-10-10T14:09:37;20.02;;;9.55;;
57029;SDS011;42920;45.306;20.448;2022-10-10T14:12:07;16.80;;;9.43;;
57029;SDS011;42920;45.306;20.448;2022-10-10T14:14:43;14.10;;;9.20;;
57029;SDS011;42920;45.306;20.448;2022-10-10T14:17:11;21.70;;;9.55;;
57029;SDS011;42920;45.306;20.448;2022-10-10T14:19:39;18.58;;;9.40;;
57029;SDS011;42920;45.306;20.448;2022-10-10T14:22:05;17.55;;;10.77;;
57029;SDS011;42920;45.306;20.448;2022-10-10T14:24:31;15.13;;;9.48;;
57029;SDS011;42920;45.306;20.448;2022-10-10T14:27:02;15.57;;;10.25;;
57029;SDS011;42920;45.306;20.448;2022-10-10T14:29:36;26.90;;;10.70;;
57029;SDS011;42920;45.306;20.448;2022-10-10T14:32:03;24.98;;;10.20;;
57029;SDS011;42920;45.306;20.448;2022-10-10T14:34:29;13.63;;;9.65;;
57029;SDS011;42920;45.306;20.448;2022-10-10T14:36:54;13.80;;;10.07;;
57029;SDS011;42920;45.306;20.448;2022-10-10T14:39:20;17.40;;;9.70;;
57029;SDS011;42920;45.306;20.448;2022-10-10T14:41:46;16.42;;;8.80;;
57029;SDS011;42920;45.306;20.448;2022-10-10T14:44:11;21.77;;;10.27;;
57029;SDS011;42920;45.306;20.448;2022-10-10T14:46:38;16.27;;;9.75;;
57029;SDS011;42920;45.306;20.448;2022-10-10T14:49:04;13.73;;;9.07;;
57029;SDS011;42920;45.306;20.448;2022-10-10T14:51:38;15.43;;;9.05;;
57029;SDS011;42920;45.306;20.448;2022-10-10T14:54:04;14.52;;;8.95;;
57029;SDS011;42920;45.306;20.448;2022-10-10T14:56:30;17.38;;;9.27;;
57029;SDS011;42920;45.306;20.448;2022-10-10T14:58:56;17.75;;;9.40;;
57029;SDS011;42920;45.306;20.448;2022-10-10T15:01:22;18.08;;;10.18;;
57029;SDS011;42920;45.306;20.448;2022-10-10T15:03:48;21.48;;;9.75;;
57029;SDS011;42920;45.306;20.448;2022-10-10T15:06:13;16.20;;;10.13;;
57029;SDS011;42920;45.306;20.448;2022-10-10T15:08:39;18.42;;;9.65;;
57029;SDS011;42920;45.306;20.448;2022-10-10T15:11:05;22.65;;;9.95;;
57029;SDS011;42920;45.306;20.448;2022-10-10T15:13:31;17.67;;;10.50;;
57029;SDS011;42920;45.306;20.448;2022-10-10T15:15:56;19.90;;;9.77;;
57029;SDS011;42920;45.306;20.448;2022-10-10T15:18:22;25.73;;;10.13;;
57029;SDS011;42920;45.306;20.448;2022-10-10T15:20:48;17.33;;;9.63;;
57029;SDS011;42920;45.306;20.448;2022-10-10T15:23:13;16.92;;;10.02;;
57029;SDS011;42920;45.306;20.448;2022-10-10T15:25:42;24.83;;;10.65;;
57029;SDS011;42920;45.306;20.448;2022-10-10T15:28:08;13.95;;;9.30;;
57029;SDS011;42920;45.306;20.448;2022-10-10T15:30:34;15.02;;;8.90;;
57029;SDS011;42920;45.306;20.448;2022-10-10T15:33:00;17.77;;;9.38;;
57029;SDS011;42920;45.306;20.448;2022-10-10T15:35:26;18.88;;;10.02;;
57029;SDS011;42920;45.306;20.448;2022-10-10T15:37:52;20.63;;;10.88;;
57029;SDS011;42920;45.306;20.448;2022-10-10T15:40:19;19.25;;;8.57;;
57029;SDS011;42920;45.306;20.448;2022-10-10T15:42:46;16.15;;;9.70;;
57029;SDS011;42920;45.306;20.448;2022-10-10T15:45:12;19.10;;;10.35;;
57029;SDS011;42920;45.306;20.448;2022-10-10T15:47:39;15.82;;;9.50;;
57029;SDS011;42920;45.306;20.448;2022-10-10T15:50:06;22.30;;;12.05;;
57029;SDS011;42920;45.306;20.448;2022-10-10T15:52:33;15.25;;;11.35;;
57029;SDS011;42920;45.306;20.448;2022-10-10T15:54:59;18.58;;;11.07;;
57029;SDS011;42920;45.306;20.448;2022-10-10T15:57:25;18.80;;;11.18;;
57029;SDS011;42920;45.306;20.448;2022-10-10T15:59:51;22.58;;;10.95;;
57029;SDS011;42920;45.306;20.448;2022-10-10T16:02:16;20.98;;;12.55;;
57029;SDS011;42920;45.306;20.448;2022-10-10T16:04:42;25.20;;;11.43;;
57029;SDS011;42920;45.306;20.448;2022-10-10T16:07:09;41.55;;;20.65;;
57029;SDS011;42920;45.306;20.448;2022-10-10T16:09:36;55.17;;;28.88;;
57029;SDS011;42920;45.306;20.448;2022-10-10T16:12:01;44.45;;;22.98;;
57029;SDS011;42920;45.306;20.448;2022-10-10T16:14:27;42.13;;;18.85;;
57029;SDS011;42920;45.306;20.448;2022-10-10T16:16:53;29.95;;;14.38;;
57029;SDS011;42920;45.306;20.448;2022-10-10T16:19:19;31.48;;;15.45;;